Time,TemperatureF,DewpointF,PressureIn,WindDirection,WindDirectionDegrees,WindSpeedMPH,WindSpeedGustMPH,Humidity,HourlyPrecipIn,Conditions,Clouds,dailyrainin,SoftwareType,DateUTC
2013-02-17 00:33:00,23.0,21.0,29.90,WNW,293,6.0,6.0,90,0.00,,,0.04,,2013-02-17 05:33:00,
2013-02-17 00:42:00,23.0,21.0,29.90,WNW,293,6.0,6.0,90,0.00,,,0.04,,2013-02-17 05:42:00,
2013-02-17 00:52:00,23.0,19.0,29.90,NNW,328,6.0,6.0,86,0.00,,,0.04,,2013-02-17 05:52:00,
2013-02-17 01:02:00,23.0,19.0,29.90,West,271,1.0,3.0,85,0.00,,,0.04,,2013-02-17 06:02:00,
2013-02-17 01:11:00,23.0,19.0,29.90,West,271,1.0,3.0,85,0.00,,,0.04,,2013-02-17 06:11:00,
2013-02-17 01:21:00,22.0,18.0,29.91,NNW,333,1.0,0.0,85,0.00,,,0.04,,2013-02-17 06:21:00,
2013-02-17 01:31:00,22.0,18.0,29.91,NNW,333,1.0,0.0,85,0.00,,,0.04,,2013-02-17 06:31:00,
2013-02-17 01:42:00,22.0,18.0,29.91,NNW,333,1.0,0.0,85,0.00,,,0.04,,2013-02-17 06:42:00,
2013-02-17 01:52:00,22.0,18.0,29.92,West,262,6.0,6.0,86,0.00,,,0.04,,2013-02-17 06:52:00,
2013-02-17 02:01:00,22.0,18.0,29.92,West,262,6.0,6.0,86,0.00,,,0.04,,2013-02-17 07:01:00,
2013-02-17 02:11:00,22.0,18.0,29.92,West,262,6.0,6.0,86,0.00,,,0.04,,2013-02-17 07:11:00,
2013-02-17 02:21:00,22.0,18.0,29.92,West,262,6.0,6.0,86,0.00,,,0.04,,2013-02-17 07:21:00,
2013-02-17 02:32:00,22.0,20.0,29.92,SW,232,0.0,0.0,90,0.00,,,0.04,,2013-02-17 07:32:00,
2013-02-17 02:42:00,22.0,20.0,29.92,SW,232,0.0,0.0,90,0.00,,,0.04,,2013-02-17 07:42:00,
2013-02-17 02:52:00,22.0,20.0,29.92,SW,232,0.0,0.0,90,0.00,,,0.04,,2013-02-17 07:52:00,
2013-02-17 03:01:00,21.0,18.0,29.92,NNW,332,0.0,5.0,89,0.00,,,0.04,,2013-02-17 08:01:00,
2013-02-17 03:11:00,21.0,18.0,29.92,NNW,332,0.0,5.0,89,0.00,,,0.04,,2013-02-17 08:11:00,
2013-02-17 03:22:00,21.0,19.0,29.92,NNW,339,7.0,7.0,90,0.00,,,0.04,,2013-02-17 08:22:00,
2013-02-17 03:32:00,21.0,19.0,29.93,SW,232,1.0,0.0,92,0.00,,,0.04,,2013-02-17 08:32:00,
2013-02-17 03:42:00,21.0,19.0,29.93,SW,232,1.0,0.0,92,0.00,,,0.04,,2013-02-17 08:42:00,
2013-02-17 03:52:00,21.0,19.0,29.93,SW,215,0.0,0.0,92,0.00,,,0.04,,2013-02-17 08:52:00,
2013-02-17 04:02:00,21.0,19.0,29.93,West,270,5.0,0.0,91,0.00,,,0.04,,2013-02-17 09:02:00,
2013-02-17 04:11:00,21.0,19.0,29.93,West,270,5.0,0.0,91,0.00,,,0.04,,2013-02-17 09:11:00,
2013-02-17 04:21:00,21.0,19.0,29.93,WNW,283,6.0,6.0,90,0.00,,,0.04,,2013-02-17 09:21:00,
2013-02-17 04:31:00,20.0,17.0,29.93,West,273,7.0,7.0,89,0.00,,,0.04,,2013-02-17 09:31:00,
2013-02-17 04:42:00,20.0,17.0,29.93,West,273,7.0,7.0,89,0.00,,,0.04,,2013-02-17 09:42:00,
2013-02-17 04:51:00,20.0,17.0,29.93,West,273,7.0,7.0,89,0.00,,,0.04,,2013-02-17 09:51:00,
2013-02-17 05:01:00,19.0,16.0,29.94,WSW,257,7.0,0.0,88,0.00,,,0.04,,2013-02-17 10:01:00,
2013-02-17 05:11:00,19.0,16.0,29.94,WSW,257,7.0,0.0,88,0.00,,,0.04,,2013-02-17 10:11:00,
2013-02-17 05:22:00,19.0,16.0,29.94,WSW,257,7.0,0.0,88,0.00,,,0.04,,2013-02-17 10:22:00,
2013-02-17 05:32:00,18.0,16.0,29.95,North,359,11.0,11.0,91,0.00,,,0.04,,2013-02-17 10:32:00,
2013-02-17 05:42:00,18.0,16.0,29.95,North,359,11.0,11.0,91,0.00,,,0.04,,2013-02-17 10:42:00,
2013-02-17 05:52:00,18.0,16.0,29.96,WSW,250,1.0,7.0,93,0.00,,,0.04,,2013-02-17 10:52:00,
2013-02-17 06:01:00,18.0,16.0,29.96,WNW,293,1.0,0.0,93,0.00,,,0.04,,2013-02-17 11:01:00,
2013-02-17 06:11:00,18.0,16.0,29.96,WNW,293,1.0,0.0,93,0.00,,,0.04,,2013-02-17 11:11:00,
2013-02-17 06:21:00,17.0,15.0,29.97,SW,229,5.0,5.0,92,0.00,,,0.04,,2013-02-17 11:21:00,
2013-02-17 06:32:00,17.0,15.0,29.97,SW,222,4.0,0.0,91,0.00,,,0.04,,2013-02-17 11:32:00,
2013-02-17 06:42:00,17.0,15.0,29.97,SW,222,4.0,0.0,91,0.00,,,0.04,,2013-02-17 11:42:00,
2013-02-17 06:52:00,17.0,15.0,29.97,SW,222,4.0,0.0,91,0.00,,,0.04,,2013-02-17 11:52:00,
2013-02-17 07:03:00,17.0,16.0,29.98,WSW,252,7.0,7.0,96,0.00,,,0.04,,2013-02-17 12:03:00,
2013-02-17 07:11:00,17.0,16.0,29.98,WSW,252,7.0,7.0,96,0.00,,,0.04,,2013-02-17 12:11:00,
2013-02-17 07:22:00,16.0,15.0,29.99,WNW,290,2.0,5.0,94,0.00,,,0.04,,2013-02-17 12:22:00,
2013-02-17 07:32:00,16.0,14.0,29.99,NW,325,0.0,0.0,92,0.00,,,0.04,,2013-02-17 12:32:00,
2013-02-17 07:42:00,16.0,14.0,29.99,NW,325,0.0,0.0,92,0.00,,,0.04,,2013-02-17 12:42:00,
2013-02-17 07:52:00,16.0,14.0,30.00,SSW,211,0.0,0.0,91,0.00,,,0.04,,2013-02-17 12:52:00,
2013-02-17 08:02:00,16.0,14.0,30.00,West,263,0.0,5.0,91,0.00,,,0.04,,2013-02-17 13:02:00,
2013-02-17 08:12:00,16.0,14.0,30.00,West,263,0.0,5.0,91,0.00,,,0.04,,2013-02-17 13:12:00,
2013-02-17 08:22:00,16.0,14.0,30.01,SW,225,0.0,0.0,90,0.00,,,0.04,,2013-02-17 13:22:00,
2013-02-17 08:32:00,16.0,13.0,30.01,WNW,300,2.0,7.0,89,0.00,,,0.04,,2013-02-17 13:32:00,
2013-02-17 08:42:00,16.0,13.0,30.01,WNW,300,2.0,7.0,89,0.00,,,0.04,,2013-02-17 13:42:00,
2013-02-17 08:51:00,17.0,14.0,30.02,North,1,1.0,0.0,89,0.00,,,0.04,,2013-02-17 13:51:00,
2013-02-17 09:01:00,17.0,14.0,30.02,SSW,203,0.0,0.0,88,0.00,,,0.04,,2013-02-17 14:01:00,
2013-02-17 09:11:00,17.0,14.0,30.02,SSW,203,0.0,0.0,88,0.00,,,0.04,,2013-02-17 14:11:00,
2013-02-17 09:21:00,17.0,14.0,30.02,West,266,4.0,0.0,87,0.00,,,0.04,,2013-02-17 14:21:00,
2013-02-17 09:32:00,17.0,14.0,30.03,WNW,284,1.0,0.0,87,0.00,,,0.04,,2013-02-17 14:32:00,
2013-02-17 09:42:00,17.0,14.0,30.03,WNW,284,1.0,0.0,87,0.00,,,0.04,,2013-02-17 14:42:00,
2013-02-17 09:53:00,18.0,14.0,30.03,NW,309,5.0,5.0,84,0.00,,,0.04,,2013-02-17 14:53:00,
2013-02-17 10:02:00,18.0,14.0,30.04,North,359,2.0,0.0,85,0.00,,,0.04,,2013-02-17 15:02:00,
2013-02-17 10:11:00,18.0,14.0,30.04,North,359,2.0,0.0,85,0.00,,,0.04,,2013-02-17 15:11:00,
2013-02-17 10:21:00,18.0,14.0,30.04,WNW,301,2.0,0.0,83,0.00,,,0.04,,2013-02-17 15:21:00,
2013-02-17 10:32:00,19.0,15.0,30.04,West,266,0.0,0.0,84,0.00,,,0.04,,2013-02-17 15:32:00,
2013-02-17 10:42:00,19.0,15.0,30.04,West,266,0.0,0.0,84,0.00,,,0.04,,2013-02-17 15:42:00,
2013-02-17 10:52:00,19.0,16.0,30.05,WNW,287,3.0,9.0,86,0.00,,,0.04,,2013-02-17 15:52:00,
2013-02-17 11:01:00,19.0,16.0,30.05,WNW,287,3.0,9.0,86,0.00,,,0.04,,2013-02-17 16:01:00,
2013-02-17 11:12:00,19.0,16.0,30.05,WNW,287,3.0,9.0,86,0.00,,,0.04,,2013-02-17 16:12:00,
2013-02-17 11:21:00,19.0,16.0,30.05,WNW,287,3.0,9.0,86,0.00,,,0.04,,2013-02-17 16:21:00,
2013-02-17 11:32:00,20.0,15.0,30.06,WNW,287,2.0,5.0,79,0.00,,,0.04,,2013-02-17 16:32:00,
2013-02-17 11:42:00,20.0,15.0,30.06,WNW,287,2.0,5.0,79,0.00,,,0.04,,2013-02-17 16:42:00,
2013-02-17 11:52:00,20.0,15.0,30.06,NW,314,4.0,10.0,79,0.00,,,0.04,,2013-02-17 16:52:00,
2013-02-17 12:02:00,20.0,15.0,30.06,WNW,298,1.0,5.0,79,0.00,,,0.04,,2013-02-17 17:02:00,
2013-02-17 12:11:00,20.0,15.0,30.06,WNW,298,1.0,5.0,79,0.00,,,0.04,,2013-02-17 17:11:00,
2013-02-17 12:21:00,20.0,15.0,30.06,WNW,298,1.0,5.0,79,0.00,,,0.04,,2013-02-17 17:21:00,
2013-02-17 12:32:00,20.0,14.0,30.06,WSW,240,6.0,6.0,78,0.00,,,0.04,,2013-02-17 17:32:00,
2013-02-17 12:42:00,20.0,14.0,30.06,WSW,240,6.0,6.0,78,0.00,,,0.04,,2013-02-17 17:42:00,
2013-02-17 12:52:00,20.0,14.0,30.06,WSW,240,6.0,6.0,78,0.00,,,0.04,,2013-02-17 17:52:00,
2013-02-17 13:02:00,21.0,13.0,30.06,NNW,329,7.0,7.0,70,0.00,,,0.04,,2013-02-17 18:02:00,
2013-02-17 13:11:00,21.0,13.0,30.06,NNW,329,7.0,7.0,70,0.00,,,0.04,,2013-02-17 18:11:00,
2013-02-17 13:22:00,21.0,13.0,30.06,WSW,248,5.0,5.0,70,0.00,,,0.04,,2013-02-17 18:22:00,
2013-02-17 13:33:00,20.0,12.0,30.06,North,350,5.0,6.0,70,0.00,,,0.04,,2013-02-17 18:33:00,
2013-02-17 13:42:00,20.0,12.0,30.06,North,350,5.0,6.0,70,0.00,,,0.04,,2013-02-17 18:42:00,
2013-02-17 13:52:00,20.0,12.0,30.06,North,350,5.0,6.0,70,0.00,,,0.04,,2013-02-17 18:52:00,
2013-02-17 14:02:00,20.0,12.0,30.06,North,350,5.0,6.0,70,0.00,,,0.04,,2013-02-17 19:02:00,
2013-02-17 14:11:00,20.0,12.0,30.06,North,350,5.0,6.0,70,0.00,,,0.04,,2013-02-17 19:11:00,
2013-02-17 14:32:00,22.0,16.0,30.06,South,188,6.0,6.0,76,0.00,,,0.04,,2013-02-17 19:32:00,
2013-02-17 14:42:00,22.0,16.0,30.06,South,188,6.0,6.0,76,0.00,,,0.04,,2013-02-17 19:42:00,
2013-02-17 14:52:00,22.0,16.0,30.06,South,188,6.0,6.0,76,0.00,,,0.04,,2013-02-17 19:52:00,
2013-02-17 15:02:00,22.0,14.0,30.06,West,270,7.0,7.0,70,0.00,,,0.04,,2013-02-17 20:02:00,
2013-02-17 15:11:00,22.0,14.0,30.06,West,270,7.0,7.0,70,0.00,,,0.04,,2013-02-17 20:11:00,
2013-02-17 15:22:00,22.0,14.0,30.06,West,270,7.0,7.0,70,0.00,,,0.04,,2013-02-17 20:22:00,
2013-02-17 15:32:00,22.0,14.0,30.06,West,271,3.0,0.0,72,0.00,,,0.04,,2013-02-17 20:32:00,
2013-02-17 15:42:00,22.0,14.0,30.06,West,271,3.0,0.0,72,0.00,,,0.04,,2013-02-17 20:42:00,
2013-02-17 15:52:00,22.0,14.0,30.06,West,271,3.0,0.0,72,0.00,,,0.04,,2013-02-17 20:52:00,
2013-02-17 16:02:00,22.0,14.0,30.06,West,271,3.0,0.0,72,0.00,,,0.04,,2013-02-17 21:02:00,
2013-02-17 16:11:00,22.0,14.0,30.06,West,271,3.0,0.0,72,0.00,,,0.04,,2013-02-17 21:11:00,
2013-02-17 16:21:00,21.0,18.0,30.09,North,359,4.0,7.0,88,0.00,,,0.04,,2013-02-17 21:21:00,
2013-02-17 16:32:00,21.0,18.0,30.09,North,359,4.0,7.0,88,0.00,,,0.04,,2013-02-17 21:32:00,
2013-02-17 16:42:00,21.0,18.0,30.09,North,359,4.0,7.0,88,0.00,,,0.04,,2013-02-17 21:42:00,
2013-02-17 16:52:00,21.0,18.0,30.09,North,359,4.0,7.0,88,0.00,,,0.04,,2013-02-17 21:52:00,
2013-02-17 18:32:00,21.0,13.0,30.14,NW,312,1.0,8.0,72,0.00,,,0.04,,2013-02-17 23:32:00,
2013-02-17 18:42:00,21.0,13.0,30.14,NW,312,1.0,8.0,72,0.00,,,0.04,,2013-02-17 23:42:00,
2013-02-17 18:52:00,21.0,13.0,30.14,WNW,301,0.0,11.0,72,0.00,,,0.04,,2013-02-17 23:52:00,
2013-02-17 19:02:00,21.0,13.0,30.14,WNW,301,0.0,11.0,72,0.00,,,0.04,,2013-02-18 00:02:00,
2013-02-17 19:11:00,21.0,13.0,30.14,WNW,301,0.0,11.0,72,0.00,,,0.04,,2013-02-18 00:11:00,
2013-02-17 19:22:00,21.0,13.0,30.14,WNW,301,0.0,11.0,72,0.00,,,0.04,,2013-02-18 00:22:00,
2013-02-17 20:52:00,20.0,14.0,30.19,WNW,285,0.0,0.0,77,0.00,,,0.04,,2013-02-18 01:52:00,
2013-02-17 21:02:00,20.0,14.0,30.20,North,1,0.0,0.0,78,0.00,,,0.04,,2013-02-18 02:02:00,
2013-02-17 21:11:00,20.0,14.0,30.20,North,1,0.0,0.0,78,0.00,,,0.04,,2013-02-18 02:11:00,
2013-02-17 21:22:00,20.0,14.0,30.20,North,1,0.0,0.0,78,0.00,,,0.04,,2013-02-18 02:22:00,
2013-02-17 21:32:00,20.0,14.0,30.20,North,1,0.0,0.0,78,0.00,,,0.04,,2013-02-18 02:32:00,
2013-02-17 23:32:00,20.0,11.0,30.23,SW,214,0.0,0.0,67,0.00,,,0.04,,2013-02-18 04:32:00,
2013-02-17 23:42:00,20.0,11.0,30.23,SW,214,0.0,0.0,67,0.00,,,0.04,,2013-02-18 04:42:00,
2013-02-17 23:52:00,20.0,11.0,30.23,SW,214,0.0,0.0,67,0.00,,,0.04,,2013-02-18 04:52:00,